Isle of Iona, United Kingdom
Current Conditions -  °F | °C
As of 8:20 AM on Thursday 27 Nov 2014 (Local Time) from EGPU Reporting Station
Few Clouds Few Clouds  
Wind Chill: 39°   Ceiling: Unl
Heat Index: 46°   Visibility: 6mi
Dew Point: 43°   Wind: 20mph
Humidity: 87%   Direction: 130°SE
Pressure: 29.59"   Gusts: NA
Location:  56.33°N, 6.39°W
Report Text: EGPU 270820Z AUTO 13017KT 9999 FEW043/// 08/06 Q1002
Loading
Personal Weather Stations






























Interactive Weather Map New forecast layout! Learn more

10-Day Weather Forecast

Advertisements
Track Severe Weather on mobile